Time;durP1;ratioP1;P1;durP2;ratioP2;P2;SDS_P1;SDS_P2;PMS_P1;PMS_P2;Temp;Humidity;BMP_temperature;BMP_pressure;BME280_temperature;BME280_humidity;BME280_pressure;Samples;Min_cycle;Max_cycle;Signal;HPM_P1;HPM_P2
2024/01/26 00:11:15;;;;;;;56.60;20.40;;;;;;;3.64;94.06;100876.45;681712;1263;139171;-82
2024/01/26 00:26:19;;;;;;;19.50;10.60;;;;;;;3.56;94.36;100879.77;681840;1263;139539;-82
2024/01/26 00:41:24;;;;;;;35.90;14.00;;;;;;;3.50;94.36;100883.52;681687;1265;139720;-81
2024/01/26 00:56:29;;;;;;;37.20;15.80;;;;;;;3.50;94.61;100893.57;681699;1263;139022;-81
2024/01/26 01:11:34;;;;;;;23.40;10.10;;;;;;;3.56;94.96;100909.16;681286;1267;141275;-82
2024/01/26 01:26:38;;;;;;;33.60;13.60;;;;;;;3.66;94.87;100926.70;681476;1267;139127;-83
2024/01/26 01:41:46;;;;;;;19.30;8.90;;;;;;;3.66;94.57;100934.96;681485;1267;139801;-82
2024/01/26 01:56:53;;;;;;;10.10;5.50;;;;;;;3.69;94.26;100954.02;681559;1266;139350;-83
2024/01/26 02:12:01;;;;;;;13.70;6.60;;;;;;;3.77;94.03;100967.67;681736;1265;138858;-83
2024/01/26 02:27:05;;;;;;;10.90;5.10;;;;;;;3.78;93.42;100972.48;681522;1265;140515;-83
2024/01/26 02:42:09;;;;;;;5.30;4.00;;;;;;;3.78;93.53;100973.51;681657;1265;139444;-81
2024/01/26 02:57:14;;;;;;;7.90;4.40;;;;;;;3.77;92.67;100986.19;681591;1262;139017;-82
2024/01/26 03:12:18;;;;;;;22.30;8.90;;;;;;;3.77;92.97;100986.70;681699;1266;140071;-82
2024/01/26 03:27:24;;;;;;;22.10;10.20;;;;;;;3.76;92.78;100994.35;681728;1267;139493;-81
2024/01/26 03:42:28;;;;;;;7.50;4.50;;;;;;;3.75;92.21;100994.91;681668;1263;140486;-82
2024/01/26 03:57:32;;;;;;;11.40;5.30;;;;;;;3.73;92.15;101002.31;681771;1263;140966;-82
2024/01/26 04:12:36;;;;;;;19.50;8.70;;;;;;;3.72;92.06;101024.67;681761;1265;140065;-82
2024/01/26 04:27:40;;;;;;;19.60;9.10;;;;;;;3.70;91.91;101026.49;681715;1265;139694;-81
2024/01/26 04:42:45;;;;;;;30.00;16.70;;;;;;;3.67;91.16;101021.09;681646;1265;139215;-81
2024/01/26 04:57:49;;;;;;;22.80;10.90;;;;;;;3.68;90.37;101014.83;681666;1263;139763;-81
2024/01/26 05:12:53;;;;;;;18.40;8.10;;;;;;;3.65;89.98;101020.30;681937;1266;139268;-82
2024/01/26 05:27:58;;;;;;;20.90;12.60;;;;;;;3.60;89.69;101024.73;681647;1265;139222;-82
2024/01/26 05:43:02;;;;;;;10.00;5.90;;;;;;;3.60;89.44;101023.34;681691;1266;139324;-82
2024/01/26 05:58:06;;;;;;;24.90;10.90;;;;;;;3.63;88.86;101015.41;681577;1264;139727;-81
2024/01/26 06:13:12;;;;;;;41.20;15.00;;;;;;;3.63;88.29;101016.78;681627;1266;139613;-83
2024/01/26 06:28:16;;;;;;;50.70;20.80;;;;;;;3.64;88.11;101014.14;681355;1266;139040;-85
2024/01/26 06:43:21;;;;;;;40.30;13.70;;;;;;;3.69;87.73;101030.00;681494;1272;140263;-83
2024/01/26 06:58:26;;;;;;;71.50;25.40;;;;;;;3.71;87.77;101035.09;681435;1265;139023;-84
2024/01/26 07:13:30;;;;;;;52.30;20.20;;;;;;;3.79;87.81;101033.34;681680;1266;139358;-83
2024/01/26 07:28:37;;;;;;;231.70;72.40;;;;;;;3.85;87.47;101043.25;681497;1265;159925;-83
2024/01/26 07:43:41;;;;;;;29.00;12.80;;;;;;;3.98;87.35;101057.50;681509;1269;139222;-83
2024/01/26 07:58:45;;;;;;;62.10;21.60;;;;;;;3.95;86.79;101058.89;681564;1266;140162;-84
2024/01/26 08:13:50;;;;;;;27.50;12.00;;;;;;;4.02;86.72;101048.52;681638;1265;139367;-84
2024/01/26 08:28:54;;;;;;;19.20;9.30;;;;;;;4.13;86.11;101048.84;681629;1264;139015;-84
2024/01/26 08:43:58;;;;;;;18.30;8.50;;;;;;;4.25;85.53;101044.13;681712;1267;139623;-84
2024/01/26 08:59:02;;;;;;;15.00;6.40;;;;;;;4.34;84.42;101045.38;681612;1267;139698;-83
2024/01/26 09:14:05;;;;;;;269.30;89.10;;;;;;;4.29;84.14;101032.12;681637;1266;139538;-84
2024/01/26 09:29:11;;;;;;;181.60;73.80;;;;;;;4.37;83.18;101012.16;681846;1260;140161;-85
2024/01/26 09:44:22;;;;;;;18.30;7.90;;;;;;;4.45;83.10;101006.70;681723;1266;139237;-84
2024/01/26 09:59:29;;;;;;;29.80;12.60;;;;;;;4.38;83.01;100989.94;681783;1276;139325;-84
2024/01/26 10:14:35;;;;;;;40.00;17.40;;;;;;;4.21;82.61;100962.38;681569;1262;140132;-86
2024/01/26 10:29:40;;;;;;;27.00;15.20;;;;;;;4.38;82.81;100953.73;681622;1270;138990;-84
2024/01/26 10:44:48;;;;;;;25.40;10.10;;;;;;;4.18;83.23;100932.41;681737;1262;139030;-85
2024/01/26 10:59:54;;;;;;;20.00;15.50;;;;;;;4.12;84.04;100906.73;681955;1264;139040;-84
2024/01/26 11:15:13;;;;;;;50.20;19.50;;;;;;;4.08;84.38;100892.59;681405;1265;139370;-84
2024/01/26 11:30:23;;;;;;;16.90;9.30;;;;;;;4.09;85.28;100869.85;681736;1262;139710;-82
2024/01/26 11:45:40;;;;;;;36.20;18.80;;;;;;;4.00;85.99;100837.26;681673;1263;138709;-83
2024/01/26 12:00:45;;;;;;;14.60;8.30;;;;;;;4.09;86.38;100799.90;681821;1265;139129;-84
2024/01/26 12:15:50;;;;;;;45.00;21.90;;;;;;;4.09;87.06;100790.90;681445;1263;138963;-84
2024/01/26 12:30:54;;;;;;;19.20;12.10;;;;;;;4.05;87.93;100781.29;681775;1267;139468;-84
2024/01/26 12:45:58;;;;;;;238.70;81.40;;;;;;;3.96;88.53;100761.64;681402;1262;139210;-82
2024/01/26 13:01:02;;;;;;;73.80;29.00;;;;;;;3.95;89.24;100735.39;681449;1267;140352;-82
2024/01/26 13:16:10;;;;;;;35.20;15.90;;;;;;;4.02;89.81;100710.08;681741;1263;139329;-83
2024/01/26 13:31:14;;;;;;;152.50;52.60;;;;;;;4.15;90.22;100669.05;681585;1265;140038;-82
2024/01/26 13:46:22;;;;;;;134.40;43.10;;;;;;;4.15;90.66;100604.14;681446;1262;140704;-82
2024/01/26 14:01:28;;;;;;;140.30;60.80;;;;;;;4.03;91.28;100584.77;681391;1264;139399;-81
2024/01/26 14:16:34;;;;;;;155.00;55.40;;;;;;;4.09;92.00;100568.12;681137;1262;139343;-82
2024/01/26 14:31:38;;;;;;;62.30;28.10;;;;;;;4.11;92.43;100541.53;681552;1266;140314;-83
2024/01/26 14:46:44;;;;;;;101.70;42.50;;;;;;;4.00;92.65;100499.56;681201;1264;139414;-83
2024/01/26 15:01:48;;;;;;;53.30;21.60;;;;;;;3.88;93.38;100473.27;681284;1273;139190;-83
2024/01/26 15:16:54;;;;;;;91.80;34.70;;;;;;;3.80;93.37;100454.69;681207;1267;141120;-83
2024/01/26 15:31:58;;;;;;;121.50;44.30;;;;;;;3.64;93.39;100417.02;681504;1267;139070;-83
2024/01/26 15:47:03;;;;;;;106.20;36.00;;;;;;;3.58;93.42;100391.21;681356;1267;140978;-82
2024/01/26 16:02:08;;;;;;;89.00;39.30;;;;;;;3.57;93.71;100334.58;681479;1266;139394;-85
2024/01/26 16:17:17;;;;;;;116.50;42.70;;;;;;;3.55;95.17;100306.31;681686;1260;139039;-82
2024/01/26 16:32:23;;;;;;;67.70;27.80;;;;;;;3.64;95.43;100267.54;681812;1267;139199;-82
2024/01/26 16:47:29;;;;;;;66.40;27.20;;;;;;;3.71;95.40;100222.88;681728;1266;139312;-83
2024/01/26 17:02:34;;;;;;;177.50;63.70;;;;;;;3.73;95.96;100200.56;681663;1267;139197;-82
2024/01/26 17:17:38;;;;;;;99.50;34.80;;;;;;;3.87;95.69;100180.23;681463;1277;140955;-82
2024/01/26 17:32:45;;;;;;;86.10;34.30;;;;;;;3.87;96.50;100157.69;681744;1262;139118;-82
2024/01/26 17:47:52;;;;;;;85.80;37.30;;;;;;;4.18;95.59;100136.57;681396;1262;138915;-83
2024/01/26 18:02:57;;;;;;;88.50;35.80;;;;;;;4.23;95.60;100106.80;681285;1262;140454;-82
2024/01/26 18:18:04;;;;;;;78.30;27.70;;;;;;;4.25;96.13;100071.06;681328;1265;139246;-84
2024/01/26 18:33:09;;;;;;;59.30;24.00;;;;;;;4.11;99.38;100041.31;681424;1265;139202;-82
2024/01/26 18:48:14;;;;;;;62.50;26.00;;;;;;;4.17;100.00;100031.88;681181;1267;140033;-82
2024/01/26 19:03:20;;;;;;;79.60;35.30;;;;;;;4.25;100.00;100008.39;681244;1267;139408;-87
2024/01/26 19:18:25;;;;;;;56.00;24.40;;;;;;;3.95;100.00;100003.71;681524;1266;140171;-84
2024/01/26 19:33:29;;;;;;;59.00;24.70;;;;;;;3.87;100.00;99973.95;681210;1265;199686;-81
2024/01/26 19:48:35;;;;;;;50.00;22.70;;;;;;;4.09;100.00;99948.97;681632;1263;138959;-81
2024/01/26 20:03:43;;;;;;;63.60;29.10;;;;;;;4.16;100.00;99941.80;681174;1267;139215;-82
2024/01/26 20:18:48;;;;;;;66.30;28.00;;;;;;;4.27;100.00;99921.83;681336;1266;139852;-82
2024/01/26 20:33:52;;;;;;;63.80;25.70;;;;;;;4.54;100.00;99921.42;681208;1268;139500;-82
2024/01/26 20:48:59;;;;;;;45.50;20.50;;;;;;;4.95;100.00;99929.69;681243;1267;139891;-82
2024/01/26 21:04:06;;;;;;;53.60;25.80;;;;;;;5.13;100.00;99911.41;681024;1266;139350;-82
2024/01/26 21:19:12;;;;;;;50.30;24.20;;;;;;;5.29;100.00;99897.98;681342;1266;139565;-83
2024/01/26 21:34:16;;;;;;;51.10;22.90;;;;;;;5.42;100.00;99904.85;681322;1266;139164;-82
2024/01/26 21:49:20;;;;;;;51.60;21.60;;;;;;;5.62;100.00;99914.80;681464;1265;139261;-83
2024/01/26 22:04:30;;;;;;;37.00;16.90;;;;;;;5.85;100.00;99944.92;681417;1266;139281;-81
2024/01/26 22:19:36;;;;;;;19.00;9.70;;;;;;;6.59;100.00;99983.41;681572;1265;139047;-83
2024/01/26 22:34:40;;;;;;;20.20;7.70;;;;;;;6.91;100.00;100009.62;681314;1262;139471;-81
2024/01/26 22:49:47;;;;;;;10.40;3.50;;;;;;;6.97;100.00;100034.39;681580;1266;140006;-81
2024/01/26 23:04:52;;;;;;;11.20;3.50;;;;;;;6.89;100.00;100056.91;681432;1266;139308;-81
2024/01/26 23:19:57;;;;;;;18.50;6.60;;;;;;;6.72;100.00;100085.80;681565;1266;139767;-82
2024/01/26 23:35:04;;;;;;;48.40;19.20;;;;;;;6.56;100.00;100106.79;681317;1268;140517;-81
2024/01/26 23:50:09;;;;;;;48.00;15.70;;;;;;;6.43;100.00;100125.16;681580;1265;140246;-81
